• Join FlightAware (Why Join?)
  • Login
  • US Flag 
02:17AM EDT


 

Airport Tracker/Info


-or-


 

Live Flight TrackerFlight Track Log ✈ EJA618 ✈ 07-Jul-2013 ✈ KLBE - KDAL

Flight Track Log - Related Links

Times and Time Zones

All times are in EDT time to prevent confusion due to time zone crossing. See the EJA618 flight status page for this flight to view local times or setup timezone preferences in your user account.

Time Position Orientation Groundspeed Altitude Reporting Facility
EDT Latitude Longitude Course Direction KTS MPH feet Rate Location/Type
02:22PM 40.2558 -79.4839 269° West 215 247 5,100  Level Cleveland Center
02:24PM 40.2547 -79.6011 269° West 209 241 8,000 2,340 Climbing Cleveland Center
02:25PM 40.2533 -79.6908 269° West 236 272 11,300 3,060 Climbing Cleveland Center
02:26PM 40.2500 -79.7781 267° West 250 288 14,200 2,640 Climbing Cleveland Center
02:27PM 40.2483 -79.8650 269° West 250 288 16,600 1,860 Climbing Cleveland Center
02:28PM 40.2467 -79.9519 269° West 250 288 18,000 1,200 Climbing Cleveland Center
02:29PM 40.2411 -80.0664 266° West 278 320 19,100 1,020 Climbing Cleveland Center
02:30PM 40.2394 -80.1778 269° West 293 337 20,100 960 Climbing Cleveland Center
02:31PM 40.2378 -80.2947 269° West 311 358 21,100 960 Climbing Cleveland Center
02:33PM 40.2297 -80.5119 267° West 349 402 22,900 1,200 Climbing Indianapolis Center
02:34PM 40.2247 -80.6431 267° West 356 410 24,500 1,200 Climbing Indianapolis Center
02:35PM 40.1961 -80.7656 253° West 352 405 25,500 960 Climbing Indianapolis Center
02:36PM 40.1564 -80.9144 251° West 359 413 26,700 960 Climbing Cleveland Center
02:37PM 40.1225 -81.0364 250° West 365 420 27,700 960 Climbing Cleveland Center
02:38PM 40.0917 -81.1372 248° West 360 414 28,600 960 Climbing Indianapolis Center
02:39PM 40.0564 -81.2642 250° West 366 421 29,600 960 Climbing Indianapolis Center
02:40PM 40.0206 -81.3906 250° West 367 422 30,600 1,020 Climbing Indianapolis Center
02:41PM 39.9794 -81.5361 250° West 365 420 31,800 1,020 Climbing Indianapolis Center
02:42PM 39.9433 -81.6614 249° West 359 413 32,800 960 Climbing Indianapolis Center
02:43PM 39.9072 -81.7828 249° West 357 411 33,800 960 Climbing Indianapolis Center
02:44PM 39.8725 -81.9039 250° West 355 409 34,800 960 Climbing Indianapolis Center
02:45PM 39.8372 -82.0239 249° West 353 406 35,800 960 Climbing Indianapolis Center
02:46PM 39.8031 -82.1433 250° West 348 400 36,800 960 Climbing Indianapolis Center
02:47PM 39.7675 -82.2619 249° West 350 403 37,800 960 Climbing Indianapolis Center
02:48PM 39.7317 -82.3831 249° West 355 409 38,800 960 Climbing Indianapolis Center
02:49PM 39.6961 -82.5025 249° West 352 405 39,800 540 Climbing Indianapolis Center
02:50PM 39.6389 -82.6308 240° Southwest 350 403 40,000 60 Climbing Indianapolis Center
02:51PM 39.5861 -82.7472 240° Southwest 366 421 40,000  Level Indianapolis Center
02:52PM 39.5331 -82.8669 240° Southwest 377 434 40,000  Level Indianapolis Center
02:53PM 39.4781 -82.9881 240° Southwest 384 442 40,000  Level Indianapolis Center
02:54PM 39.4247 -83.1067 240° Southwest 377 434 40,000  Level Indianapolis Center
02:55PM 39.3697 -83.2264 239° Southwest 381 438 40,000  Level Indianapolis Center
02:56PM 39.3153 -83.3472 240° Southwest 383 441 40,000  Level Indianapolis Center
02:57PM 39.2583 -83.4697 239° Southwest 390 449 40,000  Level Indianapolis Center
02:58PM 39.2022 -83.5922 239° Southwest 393 452 40,000  Level Indianapolis Center
03:00PM 39.1369 -83.7347 239° Southwest 391 450 40,000  Level Indianapolis Center
03:01PM 39.0797 -83.8564 239° Southwest 393 452 40,000  Level Indianapolis Center
03:02PM 39.0236 -83.9789 240° Southwest 393 452 40,000  Level Indianapolis Center
03:03PM 38.9669 -84.1011 239° Southwest 393 452 40,000  Level Indianapolis Center
03:04PM 38.9100 -84.2214 239° Southwest 392 451 40,000  Level Indianapolis Center
03:05PM 38.8514 -84.3442 239° Southwest 399 459 40,000  Level Indianapolis Center
03:06PM 38.7942 -84.4675 239° Southwest 398 458 40,000  Level Indianapolis Center
03:07PM 38.7272 -84.6075 239° Southwest 403 464 40,000  Level Indianapolis Center
03:08PM 38.6686 -84.7286 238° Southwest 401 461 40,000  Level Indianapolis Center
03:09PM 38.6119 -84.8472 239° Southwest 401 461 40,000  Level Indianapolis Center
03:10PM 38.5533 -84.9697 239° Southwest 403 464 40,000  Level Indianapolis Center
03:11PM 38.4856 -85.1103 238° Southwest 400 460 40,000  Level Indianapolis Center
03:12PM 38.4339 -85.2164 238° Southwest 402 463 40,000  Level Indianapolis Center
03:13PM 38.3758 -85.3372 239° Southwest 399 459 40,000  Level Indianapolis Center
03:14PM 38.3047 -85.4833 238° Southwest 400 460 40,000  Level Indianapolis Center
03:15PM 38.2442 -85.6039 237° Southwest 400 460 40,000  Level Indianapolis Center
03:16PM 38.1858 -85.7256 239° Southwest 400 460 40,000  Level Indianapolis Center
03:17PM 38.1258 -85.8458 238° Southwest 401 461 40,000  Level Indianapolis Center
03:18PM 38.0669 -85.9664 238° Southwest 402 463 40,000  Level Indianapolis Center
03:19PM 38.0067 -86.0856 237° Southwest 399 459 40,000  Level Indianapolis Center
03:20PM 37.9456 -86.2064 237° Southwest 403 464 40,000  Level Indianapolis Center
03:21PM 37.8858 -86.3267 238° Southwest 401 461 40,000  Level Indianapolis Center
03:22PM 37.8125 -86.4722 238° Southwest 404 465 40,000  Level Indianapolis Center
03:23PM 37.7519 -86.5928 238° Southwest 404 465 40,000  Level Indianapolis Center
03:24PM 37.6908 -86.7128 237° Southwest 403 464 40,000  Level Indianapolis Center
03:25PM 37.6286 -86.8333 237° Southwest 405 466 40,000  Level Indianapolis Center
03:26PM 37.5675 -86.9547 238° Southwest 407 468 40,000  Level Indianapolis Center
03:27PM 37.5025 -87.0800 237° Southwest 407 468 40,000  Level Indianapolis Center
03:28PM 37.4408 -87.2006 237° Southwest 408 470 40,000  Level Indianapolis Center
03:29PM 37.3789 -87.3208 237° Southwest 408 470 40,000  Level Indianapolis Center
03:31PM 37.3164 -87.4417 237° Southwest 408 470 40,000  Level Indianapolis Center
03:32PM 37.2447 -87.5797 237° Southwest 405 466 40,000  Level Indianapolis Center
03:32PM 37.2047 -87.6642 239° Southwest 411 473 40,000  Level Memphis Center
03:33PM 37.1425 -87.7781 236° Southwest 411 473 40,000  Level Memphis Center
03:34PM 37.0803 -87.8944 236° Southwest 406 467 40,000  Level Memphis Center
03:35PM 37.0200 -88.0133 238° Southwest 406 467 40,000  Level Memphis Center
03:36PM 36.9597 -88.1294 237° Southwest 406 467 40,000  Level Memphis Center
03:37PM 36.8953 -88.2478 236° Southwest 406 467 40,000  Level Memphis Center
03:38PM 36.8344 -88.3608 236° Southwest 406 467 40,000  Level Memphis Center
03:39PM 36.7697 -88.4817 236° Southwest 406 467 40,000  Level Memphis Center
03:40PM 36.7069 -88.6022 237° Southwest 411 473 40,000  Level Memphis Center
03:41PM 36.6417 -88.7200 235° Southwest 417 480 40,000  Level Memphis Center
03:42PM 36.5744 -88.8378 235° Southwest 417 480 40,000  Level Memphis Center
03:43PM 36.5133 -88.9575 238° Southwest 417 480 40,000  Level Memphis Center
03:44PM 36.4478 -89.0697 234° Southwest 417 480 40,000  Level Memphis Center
03:45PM 36.3742 -89.2047 236° Southwest 428 493 40,000  Level Memphis Center
03:46PM 36.3169 -89.3189 238° Southwest 435 501 40,000  Level Memphis Center
03:47PM 36.2344 -89.4564 233° Southwest 452 520 40,000  Level Memphis Center
03:48PM 36.1708 -89.5753 236° Southwest 441 507 40,000  Level Memphis Center
03:49PM 36.1067 -89.6942 236° Southwest 429 494 40,000  Level Memphis Center
03:50PM 36.0386 -89.8153 235° Southwest 429 494 40,000  Level Memphis Center
03:51PM 35.9722 -89.9339 235° Southwest 429 494 40,000  Level Memphis Center
03:52PM 35.9039 -90.0547 235° Southwest 429 494 40,000  Level Memphis Center
03:53PM 35.8372 -90.1753 236° Southwest 429 494 40,000  Level Memphis Center
03:54PM 35.7708 -90.2931 235° Southwest 429 494 40,000  Level Memphis Center
03:55PM 35.7039 -90.4108 235° Southwest 429 494 40,000  Level Memphis Center
03:56PM 35.6433 -90.5308 238° Southwest 415 478 40,000  Level Memphis Center
03:57PM 35.5744 -90.6481 234° Southwest 422 486 40,000  Level Memphis Center
03:58PM 35.5053 -90.7703 235° Southwest 427 491 40,000  Level Memphis Center
03:59PM 35.4358 -90.8897 235° Southwest 434 499 40,000  Level Memphis Center
04:00PM 35.3667 -91.0114 235° Southwest 434 499 40,000  Level Memphis Center
04:01PM 35.3033 -91.1153 233° Southwest 439 505 40,000  Level Memphis Center
04:02PM 35.2358 -91.2342 235° Southwest 434 499 40,000  Level Memphis Center
04:03PM 35.1642 -91.3553 234° Southwest 434 499 40,000  Level Memphis Center
04:04PM 35.0922 -91.4764 234° Southwest 442 509 40,000  Level Memphis Center
04:05PM 35.0222 -91.5944 234° Southwest 442 509 40,000  Level Memphis Center
04:06PM 34.9519 -91.7178 235° Southwest 447 514 40,000  Level Memphis Center
04:07PM 34.8797 -91.8356 233° Southwest 447 514 40,000  Level Memphis Center
04:08PM 34.8094 -91.9581 235° Southwest 447 514 40,000  Level Memphis Center
04:09PM 34.7369 -92.0756 233° Southwest 447 514 40,000  Level Memphis Center
04:10PM 34.6725 -92.2006 238° Southwest 442 509 40,000  Level Memphis Center
04:11PM 34.6328 -92.3461 252° West 442 509 40,000 -300 Level Memphis Center
04:12PM 34.5950 -92.4864 252° West 442 509 39,500  Descending Memphis Center
04:13PM 34.5592 -92.6217 252° West 442 509 40,000 240 Climbing Memphis Center
04:14PM 34.5233 -92.7569 252° West 436 502 40,000  Level Memphis Center
04:15PM 34.4872 -92.8969 253° West 436 502 40,000  Level Memphis Center
04:16PM 34.4508 -93.0319 252° West 431 496 40,000  Level Memphis Center
04:17PM 34.4125 -93.1692 251° West 431 496 40,000  Level Memphis Center
04:18PM 34.3781 -93.2989 252° West 424 488 40,000  Level Memphis Center
04:19PM 34.3406 -93.4597 254° West 414 476 40,000  Level Fort Worth Center
04:20PM 34.3011 -93.5972 251° West 420 483 40,000  Level Fort Worth Center
04:21PM 34.2633 -93.7322 251° West 431 496 40,000  Level Fort Worth Center
04:22PM 34.2256 -93.8694 252° West 431 496 40,000  Level Fort Worth Center
04:23PM 34.1878 -94.0064 252° West 431 496 40,000 -360 Level Fort Worth Center
04:24PM 34.1389 -94.1389 246° West 431 496 39,300 -900 Descending Fort Worth Center
04:25PM 34.0881 -94.2686 245° Southwest 436 502 38,300 -1,020 Descending Fort Worth Center
04:26PM 34.0372 -94.4033 246° West 436 502 37,300 -1,020 Descending Fort Worth Center
04:27PM 33.9839 -94.5381 245° Southwest 441 507 36,300 -1,200 Descending Fort Worth Center
04:28PM 33.9328 -94.6697 245° Southwest 441 507 35,000 -1,440 Descending Fort Worth Center
04:29PM 33.8811 -94.8017 245° Southwest 441 507 33,500 -1,500 Descending Fort Worth Center
04:30PM 33.8275 -94.9356 244° Southwest 441 507 32,000 -1,500 Descending Fort Worth Center
04:31PM 33.7739 -95.0672 244° Southwest 446 513 30,600 -1,500 Descending Fort Worth Center
04:32PM 33.7219 -95.1983 245° Southwest 446 513 29,100 -1,500 Descending Fort Worth Center
04:33PM 33.6697 -95.3294 244° Southwest 446 513 27,600 -1,500 Descending Fort Worth Center
04:34PM 33.6136 -95.4681 244° Southwest 451 519 26,200 -1,500 Descending Fort Worth Center
04:35PM 33.5614 -95.6011 245° Southwest 451 519 24,600 -1,920 Descending Fort Worth Center
04:36PM 33.5108 -95.7294 245° Southwest 440 506 22,400 -2,820 Descending Fort Worth Center
04:37PM 33.4583 -95.8572 244° Southwest 428 493 19,000 -3,120 Descending Fort Worth Center
04:38PM 33.4178 -95.9600 245° Southwest 408 470 16,200 -3,060 Descending Fort Worth Center
04:39PM 33.3669 -96.0803 243° Southwest 370 426 12,900 -2,880 Descending Fort Worth Center
04:40PM 33.3303 -96.1728 245° Southwest 356 410 10,500 -1,980 Descending Fort Worth Center
04:41PM 33.2894 -96.2728 244° Southwest 319 367 9,000 -1,260 Descending Fort Worth Center
04:42PM 33.2547 -96.3478 241° Southwest 303 349 8,000 -1,320 Descending Fort Worth Center
04:43PM 33.2117 -96.4375 240° Southwest 287 330 6,400 -1,680 Descending Fort Worth Center
04:44PM 33.1767 -96.5100 240° Southwest 279 321 4,700 -1,200 Descending Fort Worth Center
04:45PM 33.1397 -96.5872 240° Southwest 279 321 4,000 -360 Descending Fort Worth Center
04:46PM 33.1006 -96.6719 241° Southwest 271 312 4,000  Level Fort Worth Center
04:47PM 33.0717 -96.7317 240° Southwest 246 283 4,000  Level Fort Worth Center
04:48PM 33.0281 -96.7989 232° Southwest 240 276 4,000 -180 Level Fort Worth Center
04:49PM 32.9867 -96.8389 219° Southwest 225 259 3,700 -600 Descending Fort Worth Center
04:50PM 32.9408 -96.8811 218° Southwest 202 232 2,900 -1,020 Descending Fort Worth Center
04:51PM 32.9033 -96.9011 204° Southwest 179 206 1,700 -1,020 Descending Fort Worth Center
04:52PM 32.8739 -96.8767 145° Southeast 125 144 900 -480 Descending Fort Worth Center
04:53PM 32.8425 -96.8619 158° South 125 144 800 -120 Descending Fort Worth Center